Dutch
Home     News     Corporate     Events & Tours     Flight ops     Crew centre      
My transavia virtual    Join us    Last logs    Who is flying    Forum    Software    Training    VRTS     
 

view flightdata
view flightplan
view OFP
view flightlog



flightdata:
pilot: Willem van Antwerpen
flight: TRA091
from: EHAM (Amsterdam Schiphol)
to: ELLX (Luxembourg)
date: 26-08-2019
departure: 04:35z
arrival: 05:28z
duration: 0:52
aircraft: B737 (PHHSA)
distance: 220 NM
touchdown: -199 ft/m @ 131 KIAS



flightplan:
-(FPL-TRA091-IS
-B737/M-SDEHPRWXY/EHLSB1
-EHAM0446
-N0280F180 KUDA1R WOODY N872 NIK M624 GILOM L607 LNO LNO5K
-ELLX0001 EBBR
-PBN/B1D1LO1 DOF/190826 REG/PHHSA SEL/JQDH CODE/4841A5 OPR/TRA RVR/200 RMK/TCAS)



operational flightplan (OFP):
NO LOADSHEET AVAILABLE

WEATHER BRIEFING - GENERATED 26 AUG 2019 04:31 UTC
--------------------------------------------------------------------------------

EHAM ELLX EBBR

--------------------------------------------------------------------------------
ORIGIN: EHAM (SCHIPHOL)
--------------------------------------------------------------------------------
EHAM 260425Z 06003KT 9000 MIFG NSC 16/16 Q1019 NOSIG



--------------------------------------------------------------------------------
DESTINATION: ELLX (LUXEMBOURG)
--------------------------------------------------------------------------------
ELLX 260420Z 03007KT CAVOK 20/16 Q1019 NOSIG



--------------------------------------------------------------------------------
ALTERNATE: EBBR (BRUSSELS)
--------------------------------------------------------------------------------
EBBR 260420Z 00000KT CAVOK 16/14 Q1019 NOSIG



NOTAM BRIEFING - GENERATED 26 AUG 2019 04:33 UTC
--------------------------------------------------------------------------------

EHAM ELLX EBBR

--------------------------------------------------------------------------------
GLOBAL TRANSAVIA.COM VIRTUAL NOTAMS
--------------------------------------------------------------------------------
REF:NIL PLEASE CONTACT OPERATIONS IN CASE OF STRUCTURAL FLIGHTPLAN ERRORS ON FLIGHT-OPS@TRANSAVIA-VIRTUAL.COM
VALID:UFN

REF:NIL
PLEASE CHECK ACARS EVERY 10 MINUTES WHEN FLYING WITH SOUND OFF. AN NEW ACARS MESSAGE PRODUCE A SOUND SIGNAL UNTILL ITS READ. FLOWCONTROL DON'T RECEIVE MUCH REACTION ON OUTGOING ACARS MESSAGES ACCORDING FLIGHTSTATUS.
SOURCE: SPL/HV/OCC/
END VALID: UFN

REF:NIL
PLEASE CONTACT FLOWCONTROL IN CASE OF PROBLEMS WITH ROUTINGS
SOURCE: SPL/HV/OCC/
END VALID: UFN

REF:NIL
IN CASE OF ENGINE-OUT FLY V2 OR V2 20 MAX. UNTIL ABOVE MSA.
LEVEL-OFF AT AN ALTITUDE ROUNDED OFF TO THE FIRST 1000 FT OF THE HIGHEST MSA.
E.G: MSA EHAM; 1.7 AND 2.3 LEVEL-OFF 3000 FT. AFTER LANDING MAKE A REP TO OCC ON 131.975
SOURCE:SPL/HV/OCC
END VALID:UFN



flightlog:
Pilot : Willem van  Antwerpen
Flight: TRA091
From  : EHAM Schiphol
To    : ELLX Luxembourg

[FLIGHTLOG] 1.5.4
26-08-2019 04:31:51z, logging started
26-08-2019 04:35:58z, parking brake released
26-08-2019 04:39:12z, flaps set to 25%
26-08-2019 04:44:13z, take-off at 162 KIAS
26-08-2019 04:44:13z, pos report: 162 KIAS, 00 000 ft, heading 058, winds 054 @ 02 kts
26-08-2019 04:44:13z, flying online @ VATSIM (TRA071)
26-08-2019 04:44:13z, position: EHAM - Schiphol
26-08-2019 04:44:17z, retracted gear at 173 KIAS and 36 ft AGL
26-08-2019 04:44:43z, flaps set to 0%
26-08-2019 04:46:50z, pos report: 251 KIAS, 07 224 ft, heading 181, winds 116 @ 03 kts
26-08-2019 05:01:51z, pos report: 273 KIAS, 18 164 ft, heading 139, winds 337 @ 03 kts
26-08-2019 05:16:52z, pos report: 242 KIAS, 09 535 ft, heading 158, winds 048 @ 05 kts
26-08-2019 05:22:16z, flaps set to 25%
26-08-2019 05:22:39z, deployed spoilers
26-08-2019 05:23:01z, lowered gear at 184 KIAS and 1999 ft AGL
26-08-2019 05:23:33z, flaps set to 75%
26-08-2019 05:23:36z, flaps set to 100%
26-08-2019 05:25:12z, retracted spoilers
26-08-2019 05:26:37z, touchdown: -199ft/m at 131 KIAS
26-08-2019 05:26:37z, pos report: 131 KIAS, 01 196 ft, heading 058, winds 028 @ 08 kts
26-08-2019 05:26:37z, flying online @ VATSIM (TRA071)
26-08-2019 05:26:37z, position: ELLX - Luxembourg
26-08-2019 05:27:05z, flaps set to 75%
26-08-2019 05:27:06z, flaps set to 50%
26-08-2019 05:27:07z, flaps set to 0%
26-08-2019 05:28:27z, parking brake set
26-08-2019 05:29:36z, logging ended

©2009-2019, transavia virtual. All rights reserved. This website is only meant for simulation purposes.
This website is not owned by transavia, nor is transavia responsible for the content of this website.